sensor_id;sensor_type;location;lat;lon;timestamp;P1;durP1;ratioP1;P2;durP2;ratioP2
10458;SDS011;5277;48.722;8.736;2023-04-01T00:01:56;5.32;;;1.10;;
10458;SDS011;5277;48.722;8.736;2023-04-01T00:04:22;2.67;;;0.90;;
10458;SDS011;5277;48.722;8.736;2023-04-01T00:06:47;2.25;;;0.80;;
10458;SDS011;5277;48.722;8.736;2023-04-01T00:09:13;3.05;;;0.80;;
10458;SDS011;5277;48.722;8.736;2023-04-01T00:11:39;3.53;;;0.80;;
10458;SDS011;5277;48.722;8.736;2023-04-01T00:14:05;2.10;;;0.80;;
10458;SDS011;5277;48.722;8.736;2023-04-01T00:16:32;4.72;;;0.90;;
10458;SDS011;5277;48.722;8.736;2023-04-01T00:18:57;4.50;;;1.00;;
10458;SDS011;5277;48.722;8.736;2023-04-01T00:21:23;3.45;;;0.90;;
10458;SDS011;5277;48.722;8.736;2023-04-01T00:23:49;4.63;;;0.77;;
10458;SDS011;5277;48.722;8.736;2023-04-01T00:26:15;4.70;;;1.58;;
10458;SDS011;5277;48.722;8.736;2023-04-01T00:28:44;7.43;;;1.00;;
10458;SDS011;5277;48.722;8.736;2023-04-01T00:31:10;5.70;;;1.02;;
10458;SDS011;5277;48.722;8.736;2023-04-01T00:33:36;4.38;;;0.80;;
10458;SDS011;5277;48.722;8.736;2023-04-01T00:36:07;7.07;;;1.05;;
10458;SDS011;5277;48.722;8.736;2023-04-01T00:38:34;3.35;;;0.70;;
10458;SDS011;5277;48.722;8.736;2023-04-01T00:41:01;4.35;;;0.80;;
10458;SDS011;5277;48.722;8.736;2023-04-01T00:43:27;3.35;;;0.93;;
10458;SDS011;5277;48.722;8.736;2023-04-01T00:45:52;6.05;;;1.60;;
10458;SDS011;5277;48.722;8.736;2023-04-01T00:48:19;5.22;;;0.95;;
10458;SDS011;5277;48.722;8.736;2023-04-01T00:50:48;3.40;;;0.80;;
10458;SDS011;5277;48.722;8.736;2023-04-01T00:53:18;5.35;;;1.00;;
10458;SDS011;5277;48.722;8.736;2023-04-01T00:55:54;6.30;;;1.02;;
10458;SDS011;5277;48.722;8.736;2023-04-01T00:58:28;8.27;;;0.93;;
10458;SDS011;5277;48.722;8.736;2023-04-01T01:00:56;3.13;;;0.75;;
10458;SDS011;5277;48.722;8.736;2023-04-01T01:03:24;7.07;;;1.23;;
10458;SDS011;5277;48.722;8.736;2023-04-01T01:06:08;3.28;;;0.80;;
10458;SDS011;5277;48.722;8.736;2023-04-01T01:08:39;5.53;;;1.17;;
10458;SDS011;5277;48.722;8.736;2023-04-01T01:11:20;4.38;;;1.23;;
10458;SDS011;5277;48.722;8.736;2023-04-01T01:14:09;3.38;;;0.80;;
10458;SDS011;5277;48.722;8.736;2023-04-01T01:16:54;2.38;;;0.90;;
10458;SDS011;5277;48.722;8.736;2023-04-01T01:22:31;4.07;;;1.27;;
10458;SDS011;5277;48.722;8.736;2023-04-01T01:27:40;2.53;;;0.60;;
10458;SDS011;5277;48.722;8.736;2023-04-01T01:30:12;3.78;;;0.55;;
10458;SDS011;5277;48.722;8.736;2023-04-01T01:33:06;3.70;;;0.80;;
10458;SDS011;5277;48.722;8.736;2023-04-01T01:35:46;2.58;;;0.70;;
10458;SDS011;5277;48.722;8.736;2023-04-01T01:38:19;3.00;;;0.70;;
10458;SDS011;5277;48.722;8.736;2023-04-01T01:40:50;3.28;;;0.80;;
10458;SDS011;5277;48.722;8.736;2023-04-01T01:43:19;2.78;;;0.80;;
10458;SDS011;5277;48.722;8.736;2023-04-01T01:45:49;6.70;;;0.70;;
10458;SDS011;5277;48.722;8.736;2023-04-01T01:48:18;4.32;;;0.70;;
10458;SDS011;5277;48.722;8.736;2023-04-01T01:50:45;3.28;;;0.90;;
10458;SDS011;5277;48.722;8.736;2023-04-01T01:53:12;2.42;;;0.75;;
10458;SDS011;5277;48.722;8.736;2023-04-01T01:55:39;3.95;;;0.75;;
10458;SDS011;5277;48.722;8.736;2023-04-01T01:58:12;5.25;;;0.82;;
10458;SDS011;5277;48.722;8.736;2023-04-01T02:01:06;7.25;;;0.85;;
10458;SDS011;5277;48.722;8.736;2023-04-01T02:03:36;1.23;;;0.57;;
10458;SDS011;5277;48.722;8.736;2023-04-01T02:06:06;0.95;;;0.43;;
10458;SDS011;5277;48.722;8.736;2023-04-01T02:08:45;3.08;;;0.63;;
10458;SDS011;5277;48.722;8.736;2023-04-01T02:11:16;5.15;;;0.70;;
10458;SDS011;5277;48.722;8.736;2023-04-01T02:16:33;5.47;;;0.60;;
10458;SDS011;5277;48.722;8.736;2023-04-01T02:19:03;2.22;;;0.60;;
10458;SDS011;5277;48.722;8.736;2023-04-01T02:21:32;5.15;;;0.80;;
10458;SDS011;5277;48.722;8.736;2023-04-01T02:24:00;1.77;;;0.60;;
10458;SDS011;5277;48.722;8.736;2023-04-01T02:26:29;4.25;;;0.60;;
10458;SDS011;5277;48.722;8.736;2023-04-01T02:28:55;0.90;;;0.50;;
10458;SDS011;5277;48.722;8.736;2023-04-01T02:31:22;6.13;;;0.88;;
10458;SDS011;5277;48.722;8.736;2023-04-01T02:33:48;3.15;;;0.75;;
10458;SDS011;5277;48.722;8.736;2023-04-01T02:36:15;4.95;;;0.60;;
10458;SDS011;5277;48.722;8.736;2023-04-01T02:38:42;2.30;;;0.73;;
10458;SDS011;5277;48.722;8.736;2023-04-01T02:41:10;3.75;;;0.75;;
10458;SDS011;5277;48.722;8.736;2023-04-01T02:43:36;4.38;;;0.80;;
10458;SDS011;5277;48.722;8.736;2023-04-01T02:46:02;6.85;;;0.60;;
10458;SDS011;5277;48.722;8.736;2023-04-01T02:48:28;3.97;;;0.80;;
10458;SDS011;5277;48.722;8.736;2023-04-01T02:50:54;2.85;;;0.55;;
10458;SDS011;5277;48.722;8.736;2023-04-01T02:53:19;2.80;;;0.77;;
10458;SDS011;5277;48.722;8.736;2023-04-01T02:55:45;1.85;;;1.13;;
10458;SDS011;5277;48.722;8.736;2023-04-01T02:58:11;3.78;;;0.50;;
10458;SDS011;5277;48.722;8.736;2023-04-01T03:00:36;3.58;;;0.85;;
10458;SDS011;5277;48.722;8.736;2023-04-01T03:03:03;2.88;;;0.85;;
10458;SDS011;5277;48.722;8.736;2023-04-01T03:05:29;2.95;;;0.80;;
10458;SDS011;5277;48.722;8.736;2023-04-01T03:07:54;2.60;;;0.80;;
10458;SDS011;5277;48.722;8.736;2023-04-01T03:10:20;2.33;;;0.60;;
10458;SDS011;5277;48.722;8.736;2023-04-01T03:12:46;2.03;;;0.70;;
10458;SDS011;5277;48.722;8.736;2023-04-01T03:15:12;1.55;;;0.50;;
10458;SDS011;5277;48.722;8.736;2023-04-01T03:17:40;4.95;;;0.85;;
10458;SDS011;5277;48.722;8.736;2023-04-01T03:20:06;3.63;;;0.80;;
10458;SDS011;5277;48.722;8.736;2023-04-01T03:22:33;1.10;;;0.50;;
10458;SDS011;5277;48.722;8.736;2023-04-01T03:25:00;3.40;;;0.57;;
10458;SDS011;5277;48.722;8.736;2023-04-01T03:27:26;2.45;;;0.75;;
10458;SDS011;5277;48.722;8.736;2023-04-01T03:29:52;2.05;;;0.50;;
10458;SDS011;5277;48.722;8.736;2023-04-01T03:32:17;4.30;;;1.13;;
10458;SDS011;5277;48.722;8.736;2023-04-01T03:34:43;1.25;;;0.50;;
10458;SDS011;5277;48.722;8.736;2023-04-01T03:37:08;4.50;;;0.52;;
10458;SDS011;5277;48.722;8.736;2023-04-01T03:39:34;1.50;;;0.50;;
10458;SDS011;5277;48.722;8.736;2023-04-01T03:42:00;2.53;;;0.30;;
10458;SDS011;5277;48.722;8.736;2023-04-01T03:44:25;3.47;;;0.70;;
10458;SDS011;5277;48.722;8.736;2023-04-01T03:46:55;1.77;;;0.40;;
10458;SDS011;5277;48.722;8.736;2023-04-01T03:49:20;3.50;;;0.43;;
10458;SDS011;5277;48.722;8.736;2023-04-01T03:51:46;4.43;;;0.85;;
10458;SDS011;5277;48.722;8.736;2023-04-01T03:54:11;1.60;;;0.60;;
10458;SDS011;5277;48.722;8.736;2023-04-01T03:56:37;1.92;;;0.50;;
10458;SDS011;5277;48.722;8.736;2023-04-01T03:59:04;2.08;;;0.68;;
10458;SDS011;5277;48.722;8.736;2023-04-01T04:01:32;0.77;;;0.43;;
10458;SDS011;5277;48.722;8.736;2023-04-01T04:03:58;1.52;;;0.50;;
10458;SDS011;5277;48.722;8.736;2023-04-01T04:06:24;1.27;;;0.40;;
10458;SDS011;5277;48.722;8.736;2023-04-01T04:08:51;3.25;;;0.68;;
10458;SDS011;5277;48.722;8.736;2023-04-01T04:11:17;3.17;;;0.75;;
10458;SDS011;5277;48.722;8.736;2023-04-01T04:13:44;2.95;;;0.68;;
10458;SDS011;5277;48.722;8.736;2023-04-01T04:16:09;1.63;;;0.60;;
10458;SDS011;5277;48.722;8.736;2023-04-01T04:18:36;3.75;;;0.80;;
10458;SDS011;5277;48.722;8.736;2023-04-01T04:21:02;6.28;;;0.63;;
10458;SDS011;5277;48.722;8.736;2023-04-01T04:23:28;3.25;;;0.70;;
10458;SDS011;5277;48.722;8.736;2023-04-01T04:25:56;1.67;;;0.70;;
10458;SDS011;5277;48.722;8.736;2023-04-01T04:28:24;2.50;;;0.77;;
10458;SDS011;5277;48.722;8.736;2023-04-01T04:30:51;5.50;;;0.68;;
10458;SDS011;5277;48.722;8.736;2023-04-01T04:33:16;1.90;;;0.80;;
10458;SDS011;5277;48.722;8.736;2023-04-01T04:35:42;3.38;;;0.85;;
10458;SDS011;5277;48.722;8.736;2023-04-01T04:38:08;2.95;;;0.85;;
10458;SDS011;5277;48.722;8.736;2023-04-01T04:40:35;1.02;;;0.68;;
10458;SDS011;5277;48.722;8.736;2023-04-01T04:43:02;4.55;;;0.77;;
10458;SDS011;5277;48.722;8.736;2023-04-01T04:45:28;4.43;;;0.90;;
10458;SDS011;5277;48.722;8.736;2023-04-01T04:47:54;2.45;;;0.70;;
10458;SDS011;5277;48.722;8.736;2023-04-01T04:50:19;5.43;;;0.90;;
10458;SDS011;5277;48.722;8.736;2023-04-01T04:52:46;2.58;;;1.17;;
10458;SDS011;5277;48.722;8.736;2023-04-01T04:55:11;3.88;;;0.95;;
10458;SDS011;5277;48.722;8.736;2023-04-01T04:57:37;5.03;;;0.90;;
10458;SDS011;5277;48.722;8.736;2023-04-01T05:00:03;5.53;;;0.98;;
10458;SDS011;5277;48.722;8.736;2023-04-01T05:02:29;6.70;;;0.90;;
10458;SDS011;5277;48.722;8.736;2023-04-01T05:04:54;4.57;;;1.17;;
10458;SDS011;5277;48.722;8.736;2023-04-01T05:07:20;3.33;;;1.00;;
10458;SDS011;5277;48.722;8.736;2023-04-01T05:09:46;2.97;;;0.77;;
10458;SDS011;5277;48.722;8.736;2023-04-01T05:12:12;3.78;;;1.05;;
10458;SDS011;5277;48.722;8.736;2023-04-01T05:14:38;4.20;;;1.00;;
10458;SDS011;5277;48.722;8.736;2023-04-01T05:17:04;1.13;;;0.68;;
10458;SDS011;5277;48.722;8.736;2023-04-01T05:19:37;4.15;;;1.00;;
10458;SDS011;5277;48.722;8.736;2023-04-01T05:22:03;2.95;;;0.80;;
10458;SDS011;5277;48.722;8.736;2023-04-01T05:24:30;2.38;;;0.70;;
10458;SDS011;5277;48.722;8.736;2023-04-01T05:26:56;2.22;;;0.70;;
10458;SDS011;5277;48.722;8.736;2023-04-01T05:29:26;3.28;;;0.80;;
10458;SDS011;5277;48.722;8.736;2023-04-01T05:31:52;4.63;;;0.85;;
10458;SDS011;5277;48.722;8.736;2023-04-01T05:34:17;3.42;;;0.82;;
10458;SDS011;5277;48.722;8.736;2023-04-01T05:36:43;6.10;;;1.10;;
10458;SDS011;5277;48.722;8.736;2023-04-01T05:39:10;5.18;;;1.15;;
10458;SDS011;5277;48.722;8.736;2023-04-01T05:41:36;2.58;;;0.88;;
10458;SDS011;5277;48.722;8.736;2023-04-01T05:44:03;3.45;;;0.70;;
10458;SDS011;5277;48.722;8.736;2023-04-01T05:46:29;4.20;;;0.80;;
10458;SDS011;5277;48.722;8.736;2023-04-01T05:48:55;2.72;;;0.90;;
10458;SDS011;5277;48.722;8.736;2023-04-01T05:51:20;2.70;;;0.60;;
10458;SDS011;5277;48.722;8.736;2023-04-01T05:53:46;2.25;;;1.10;;
10458;SDS011;5277;48.722;8.736;2023-04-01T05:56:12;4.72;;;1.30;;
10458;SDS011;5277;48.722;8.736;2023-04-01T05:58:38;3.65;;;0.68;;
10458;SDS011;5277;48.722;8.736;2023-04-01T06:01:05;2.97;;;0.82;;
10458;SDS011;5277;48.722;8.736;2023-04-01T06:03:32;2.28;;;0.90;;
10458;SDS011;5277;48.722;8.736;2023-04-01T06:05:58;3.25;;;1.08;;
10458;SDS011;5277;48.722;8.736;2023-04-01T06:08:26;1.27;;;0.68;;
10458;SDS011;5277;48.722;8.736;2023-04-01T06:16:47;4.90;;;1.15;;
10458;SDS011;5277;48.722;8.736;2023-04-01T06:19:51;1.42;;;0.60;;
10458;SDS011;5277;48.722;8.736;2023-04-01T06:25:35;0.82;;;0.55;;
10458;SDS011;5277;48.722;8.736;2023-04-01T06:28:51;3.53;;;1.10;;
10458;SDS011;5277;48.722;8.736;2023-04-01T06:31:03;3.80;;;0.85;;
10458;SDS011;5277;48.722;8.736;2023-04-01T06:39:32;4.93;;;0.98;;
10458;SDS011;5277;48.722;8.736;2023-04-01T06:45:29;3.55;;;0.60;;
10458;SDS011;5277;48.722;8.736;2023-04-01T06:54:28;2.45;;;0.90;;
10458;SDS011;5277;48.722;8.736;2023-04-01T06:57:03;2.65;;;1.00;;
10458;SDS011;5277;48.722;8.736;2023-04-01T06:59:41;3.03;;;0.70;;
10458;SDS011;5277;48.722;8.736;2023-04-01T07:04:39;5.60;;;0.90;;
10458;SDS011;5277;48.722;8.736;2023-04-01T07:07:24;1.42;;;0.68;;
10458;SDS011;5277;48.722;8.736;2023-04-01T07:09:58;2.00;;;0.82;;
10458;SDS011;5277;48.722;8.736;2023-04-01T07:14:55;1.92;;;0.85;;
10458;SDS011;5277;48.722;8.736;2023-04-01T07:17:25;4.70;;;0.60;;
10458;SDS011;5277;48.722;8.736;2023-04-01T07:22:43;1.45;;;0.80;;
10458;SDS011;5277;48.722;8.736;2023-04-01T07:25:15;3.53;;;0.90;;
10458;SDS011;5277;48.722;8.736;2023-04-01T07:27:42;4.13;;;0.88;;
10458;SDS011;5277;48.722;8.736;2023-04-01T07:30:26;1.35;;;0.47;;
10458;SDS011;5277;48.722;8.736;2023-04-01T07:33:04;1.02;;;0.40;;
10458;SDS011;5277;48.722;8.736;2023-04-01T07:35:51;2.22;;;0.70;;
10458;SDS011;5277;48.722;8.736;2023-04-01T07:46:23;3.45;;;0.90;;
10458;SDS011;5277;48.722;8.736;2023-04-01T07:49:11;4.47;;;0.80;;
10458;SDS011;5277;48.722;8.736;2023-04-01T07:51:50;1.55;;;0.70;;
10458;SDS011;5277;48.722;8.736;2023-04-01T07:57:00;2.35;;;0.77;;
10458;SDS011;5277;48.722;8.736;2023-04-01T08:02:27;0.98;;;0.88;;
10458;SDS011;5277;48.722;8.736;2023-04-01T08:16:38;2.83;;;1.27;;
10458;SDS011;5277;48.722;8.736;2023-04-01T08:19:56;1.60;;;0.90;;
10458;SDS011;5277;48.722;8.736;2023-04-01T08:22:33;2.63;;;0.90;;
10458;SDS011;5277;48.722;8.736;2023-04-01T08:25:06;2.75;;;0.75;;
10458;SDS011;5277;48.722;8.736;2023-04-01T08:27:45;3.30;;;0.93;;
10458;SDS011;5277;48.722;8.736;2023-04-01T08:30:24;2.75;;;1.00;;
10458;SDS011;5277;48.722;8.736;2023-04-01T08:38:13;2.55;;;0.82;;
10458;SDS011;5277;48.722;8.736;2023-04-01T08:43:28;1.73;;;0.85;;
10458;SDS011;5277;48.722;8.736;2023-04-01T08:46:28;2.45;;;0.70;;
10458;SDS011;5277;48.722;8.736;2023-04-01T08:49:21;1.33;;;0.70;;
10458;SDS011;5277;48.722;8.736;2023-04-01T08:55:01;4.32;;;0.73;;
10458;SDS011;5277;48.722;8.736;2023-04-01T08:57:53;1.92;;;0.65;;
10458;SDS011;5277;48.722;8.736;2023-04-01T09:00:31;1.65;;;0.70;;
10458;SDS011;5277;48.722;8.736;2023-04-01T09:03:20;1.70;;;0.80;;
10458;SDS011;5277;48.722;8.736;2023-04-01T09:12:06;1.58;;;0.70;;
10458;SDS011;5277;48.722;8.736;2023-04-01T09:14:47;0.70;;;0.50;;
10458;SDS011;5277;48.722;8.736;2023-04-01T09:17:38;1.60;;;0.68;;
10458;SDS011;5277;48.722;8.736;2023-04-01T09:36:46;1.00;;;0.47;;
10458;SDS011;5277;48.722;8.736;2023-04-01T09:39:36;0.82;;;0.60;;
10458;SDS011;5277;48.722;8.736;2023-04-01T09:45:09;1.85;;;0.40;;
10458;SDS011;5277;48.722;8.736;2023-04-01T09:47:58;8.18;;;2.25;;
10458;SDS011;5277;48.722;8.736;2023-04-01T09:53:46;1.30;;;0.52;;
10458;SDS011;5277;48.722;8.736;2023-04-01T10:02:15;0.32;;;0.32;;
10458;SDS011;5277;48.722;8.736;2023-04-01T10:08:08;1.27;;;0.52;;
10458;SDS011;5277;48.722;8.736;2023-04-01T10:16:42;0.30;;;0.20;;
10458;SDS011;5277;48.722;8.736;2023-04-01T10:19:39;0.40;;;0.30;;
10458;SDS011;5277;48.722;8.736;2023-04-01T10:31:12;0.20;;;0.20;;
10458;SDS011;5277;48.722;8.736;2023-04-01T10:36:58;0.45;;;0.40;;
10458;SDS011;5277;48.722;8.736;2023-04-01T10:42:10;0.50;;;0.40;;
10458;SDS011;5277;48.722;8.736;2023-04-01T10:47:48;0.60;;;0.40;;
10458;SDS011;5277;48.722;8.736;2023-04-01T11:05:42;0.70;;;0.43;;
10458;SDS011;5277;48.722;8.736;2023-04-01T11:09:26;0.50;;;0.40;;
10458;SDS011;5277;48.722;8.736;2023-04-01T11:11:47;0.55;;;0.30;;
10458;SDS011;5277;48.722;8.736;2023-04-01T11:14:46;0.35;;;0.35;;
10458;SDS011;5277;48.722;8.736;2023-04-01T11:24:07;0.60;;;0.50;;
10458;SDS011;5277;48.722;8.736;2023-04-01T12:00:10;2.00;;;0.40;;
10458;SDS011;5277;48.722;8.736;2023-04-01T12:05:58;1.85;;;0.40;;
10458;SDS011;5277;48.722;8.736;2023-04-01T12:11:32;0.50;;;0.40;;
10458;SDS011;5277;48.722;8.736;2023-04-01T12:16:44;0.20;;;0.20;;
10458;SDS011;5277;48.722;8.736;2023-04-01T12:22:30;1.05;;;0.75;;
10458;SDS011;5277;48.722;8.736;2023-04-01T12:28:05;2.22;;;0.40;;
10458;SDS011;5277;48.722;8.736;2023-04-01T12:33:37;0.70;;;0.52;;
10458;SDS011;5277;48.722;8.736;2023-04-01T12:36:23;1.10;;;0.40;;
10458;SDS011;5277;48.722;8.736;2023-04-01T12:39:05;0.40;;;0.30;;
10458;SDS011;5277;48.722;8.736;2023-04-01T12:44:39;0.65;;;0.40;;
10458;SDS011;5277;48.722;8.736;2023-04-01T12:55:49;1.00;;;0.50;;
10458;SDS011;5277;48.722;8.736;2023-04-01T13:01:18;0.20;;;0.20;;
10458;SDS011;5277;48.722;8.736;2023-04-01T13:09:28;0.20;;;0.20;;
10458;SDS011;5277;48.722;8.736;2023-04-01T13:18:06;0.40;;;0.38;;
10458;SDS011;5277;48.722;8.736;2023-04-01T13:28:12;0.60;;;0.50;;
10458;SDS011;5277;48.722;8.736;2023-04-01T13:42:01;1.15;;;0.40;;
10458;SDS011;5277;48.722;8.736;2023-04-01T13:50:45;1.25;;;0.35;;
10458;SDS011;5277;48.722;8.736;2023-04-01T13:55:49;0.38;;;0.35;;
10458;SDS011;5277;48.722;8.736;2023-04-01T13:58:46;0.28;;;0.28;;
10458;SDS011;5277;48.722;8.736;2023-04-01T14:04:09;0.30;;;0.30;;
10458;SDS011;5277;48.722;8.736;2023-04-01T14:12:03;0.77;;;0.30;;
10458;SDS011;5277;48.722;8.736;2023-04-01T14:14:52;0.43;;;0.43;;
10458;SDS011;5277;48.722;8.736;2023-04-01T14:20:26;0.63;;;0.40;;
10458;SDS011;5277;48.722;8.736;2023-04-01T14:23:17;1.15;;;0.50;;
10458;SDS011;5277;48.722;8.736;2023-04-01T14:25:55;0.50;;;0.40;;
10458;SDS011;5277;48.722;8.736;2023-04-01T14:28:39;1.85;;;0.32;;
10458;SDS011;5277;48.722;8.736;2023-04-01T14:36:32;0.52;;;0.40;;
10458;SDS011;5277;48.722;8.736;2023-04-01T14:42:14;1.20;;;0.40;;
10458;SDS011;5277;48.722;8.736;2023-04-01T14:45:08;0.40;;;0.30;;
10458;SDS011;5277;48.722;8.736;2023-04-01T14:47:56;0.65;;;0.35;;
10458;SDS011;5277;48.722;8.736;2023-04-01T14:50:40;1.40;;;0.40;;
10458;SDS011;5277;48.722;8.736;2023-04-01T14:53:16;0.38;;;0.30;;
10458;SDS011;5277;48.722;8.736;2023-04-01T14:56:06;0.30;;;0.30;;
10458;SDS011;5277;48.722;8.736;2023-04-01T14:58:42;0.30;;;0.30;;
10458;SDS011;5277;48.722;8.736;2023-04-01T15:01:19;0.80;;;0.40;;
10458;SDS011;5277;48.722;8.736;2023-04-01T15:06:47;0.93;;;0.60;;
10458;SDS011;5277;48.722;8.736;2023-04-01T15:15:13;0.60;;;0.40;;
10458;SDS011;5277;48.722;8.736;2023-04-01T15:17:44;1.23;;;0.30;;
10458;SDS011;5277;48.722;8.736;2023-04-01T15:26:17;0.52;;;0.50;;
10458;SDS011;5277;48.722;8.736;2023-04-01T15:29:11;0.55;;;0.40;;
10458;SDS011;5277;48.722;8.736;2023-04-01T15:32:44;0.40;;;0.40;;
10458;SDS011;5277;48.722;8.736;2023-04-01T15:34:53;1.70;;;0.30;;
10458;SDS011;5277;48.722;8.736;2023-04-01T15:37:32;0.98;;;0.40;;
10458;SDS011;5277;48.722;8.736;2023-04-01T15:42:59;0.90;;;0.52;;
10458;SDS011;5277;48.722;8.736;2023-04-01T15:48:19;0.57;;;0.43;;
10458;SDS011;5277;48.722;8.736;2023-04-01T15:50:53;1.98;;;0.73;;
10458;SDS011;5277;48.722;8.736;2023-04-01T16:02:21;1.17;;;0.80;;
10458;SDS011;5277;48.722;8.736;2023-04-01T16:05:03;1.38;;;0.80;;
10458;SDS011;5277;48.722;8.736;2023-04-01T16:10:34;1.27;;;0.70;;
10458;SDS011;5277;48.722;8.736;2023-04-01T16:18:44;1.75;;;1.20;;
10458;SDS011;5277;48.722;8.736;2023-04-01T16:23:59;1.05;;;0.60;;
10458;SDS011;5277;48.722;8.736;2023-04-01T16:26:39;2.22;;;1.55;;
10458;SDS011;5277;48.722;8.736;2023-04-01T16:31:45;2.08;;;1.25;;
10458;SDS011;5277;48.722;8.736;2023-04-01T16:34:30;2.03;;;0.80;;
10458;SDS011;5277;48.722;8.736;2023-04-01T16:37:14;1.48;;;0.95;;
10458;SDS011;5277;48.722;8.736;2023-04-01T16:42:49;0.73;;;0.70;;
10458;SDS011;5277;48.722;8.736;2023-04-01T16:45:26;2.78;;;0.70;;
10458;SDS011;5277;48.722;8.736;2023-04-01T16:48:12;1.48;;;0.85;;
10458;SDS011;5277;48.722;8.736;2023-04-01T16:50:59;1.30;;;0.70;;
10458;SDS011;5277;48.722;8.736;2023-04-01T16:53:47;0.90;;;0.60;;
10458;SDS011;5277;48.722;8.736;2023-04-01T16:56:22;0.98;;;0.68;;
10458;SDS011;5277;48.722;8.736;2023-04-01T16:59:03;2.10;;;0.90;;
10458;SDS011;5277;48.722;8.736;2023-04-01T17:04:21;3.10;;;0.90;;
10458;SDS011;5277;48.722;8.736;2023-04-01T17:07:02;1.35;;;1.00;;
10458;SDS011;5277;48.722;8.736;2023-04-01T17:12:17;2.75;;;0.80;;
10458;SDS011;5277;48.722;8.736;2023-04-01T17:17:58;2.60;;;1.10;;
10458;SDS011;5277;48.722;8.736;2023-04-01T17:23:48;1.38;;;0.70;;
10458;SDS011;5277;48.722;8.736;2023-04-01T17:29:26;3.60;;;0.88;;
10458;SDS011;5277;48.722;8.736;2023-04-01T17:32:25;0.93;;;0.60;;
10458;SDS011;5277;48.722;8.736;2023-04-01T17:48:51;6.50;;;2.65;;
10458;SDS011;5277;48.722;8.736;2023-04-01T17:51:34;4.03;;;2.50;;
10458;SDS011;5277;48.722;8.736;2023-04-01T17:59:38;1.77;;;0.77;;
10458;SDS011;5277;48.722;8.736;2023-04-01T18:05:05;2.13;;;0.90;;
10458;SDS011;5277;48.722;8.736;2023-04-01T18:16:11;3.00;;;0.80;;
10458;SDS011;5277;48.722;8.736;2023-04-01T18:22:08;2.72;;;0.90;;
10458;SDS011;5277;48.722;8.736;2023-04-01T18:24:42;5.95;;;1.20;;
10458;SDS011;5277;48.722;8.736;2023-04-01T18:27:30;2.67;;;1.15;;
10458;SDS011;5277;48.722;8.736;2023-04-01T18:30:13;4.82;;;1.30;;
10458;SDS011;5277;48.722;8.736;2023-04-01T18:32:56;2.28;;;1.00;;
10458;SDS011;5277;48.722;8.736;2023-04-01T18:35:46;1.98;;;1.20;;
10458;SDS011;5277;48.722;8.736;2023-04-01T18:38:30;2.47;;;1.40;;
10458;SDS011;5277;48.722;8.736;2023-04-01T18:41:10;3.88;;;1.13;;
10458;SDS011;5277;48.722;8.736;2023-04-01T18:46:45;3.95;;;1.48;;
10458;SDS011;5277;48.722;8.736;2023-04-01T18:49:29;2.67;;;1.40;;
10458;SDS011;5277;48.722;8.736;2023-04-01T18:52:25;3.55;;;1.55;;
10458;SDS011;5277;48.722;8.736;2023-04-01T18:57:45;2.58;;;1.20;;
10458;SDS011;5277;48.722;8.736;2023-04-01T19:00:25;1.73;;;1.27;;
10458;SDS011;5277;48.722;8.736;2023-04-01T19:05:51;3.03;;;1.58;;
10458;SDS011;5277;48.722;8.736;2023-04-01T19:21:58;2.83;;;1.63;;
10458;SDS011;5277;48.722;8.736;2023-04-01T19:24:34;6.68;;;1.80;;
10458;SDS011;5277;48.722;8.736;2023-04-01T19:27:35;3.42;;;1.25;;
10458;SDS011;5277;48.722;8.736;2023-04-01T19:33:17;3.55;;;1.08;;
10458;SDS011;5277;48.722;8.736;2023-04-01T19:38:41;4.47;;;1.77;;
10458;SDS011;5277;48.722;8.736;2023-04-01T19:46:49;4.28;;;1.50;;
10458;SDS011;5277;48.722;8.736;2023-04-01T20:00:20;4.95;;;1.80;;
10458;SDS011;5277;48.722;8.736;2023-04-01T20:02:54;4.57;;;2.28;;
10458;SDS011;5277;48.722;8.736;2023-04-01T20:08:28;5.82;;;2.50;;
10458;SDS011;5277;48.722;8.736;2023-04-01T20:13:44;3.28;;;1.90;;
10458;SDS011;5277;48.722;8.736;2023-04-01T20:16:14;5.43;;;2.35;;
10458;SDS011;5277;48.722;8.736;2023-04-01T20:18:45;3.47;;;2.30;;
10458;SDS011;5277;48.722;8.736;2023-04-01T20:21:29;2.90;;;2.40;;
10458;SDS011;5277;48.722;8.736;2023-04-01T20:26:35;9.65;;;2.63;;
10458;SDS011;5277;48.722;8.736;2023-04-01T20:34:45;2.78;;;2.05;;
10458;SDS011;5277;48.722;8.736;2023-04-01T20:37:30;3.35;;;1.90;;
10458;SDS011;5277;48.722;8.736;2023-04-01T20:40:17;2.90;;;1.65;;
10458;SDS011;5277;48.722;8.736;2023-04-01T20:42:47;2.72;;;1.50;;
10458;SDS011;5277;48.722;8.736;2023-04-01T20:53:16;2.65;;;1.77;;
10458;SDS011;5277;48.722;8.736;2023-04-01T20:58:46;3.80;;;1.88;;
10458;SDS011;5277;48.722;8.736;2023-04-01T21:04:06;4.93;;;2.20;;
10458;SDS011;5277;48.722;8.736;2023-04-01T21:07:02;6.10;;;2.30;;
10458;SDS011;5277;48.722;8.736;2023-04-01T21:10:03;4.05;;;2.10;;
10458;SDS011;5277;48.722;8.736;2023-04-01T21:12:47;5.72;;;2.00;;
10458;SDS011;5277;48.722;8.736;2023-04-01T21:24:01;2.58;;;1.92;;
10458;SDS011;5277;48.722;8.736;2023-04-01T21:27:07;3.72;;;2.38;;
10458;SDS011;5277;48.722;8.736;2023-04-01T21:35:18;3.60;;;2.50;;
10458;SDS011;5277;48.722;8.736;2023-04-01T21:38:03;3.70;;;1.85;;
10458;SDS011;5277;48.722;8.736;2023-04-01T21:43:38;2.88;;;1.80;;
10458;SDS011;5277;48.722;8.736;2023-04-01T21:49:00;3.15;;;1.88;;
10458;SDS011;5277;48.722;8.736;2023-04-01T21:57:22;3.00;;;2.00;;
10458;SDS011;5277;48.722;8.736;2023-04-01T22:11:45;2.97;;;2.17;;
10458;SDS011;5277;48.722;8.736;2023-04-01T22:17:00;5.05;;;1.92;;
10458;SDS011;5277;48.722;8.736;2023-04-01T22:19:41;3.35;;;1.67;;
10458;SDS011;5277;48.722;8.736;2023-04-01T22:22:39;1.80;;;1.23;;
10458;SDS011;5277;48.722;8.736;2023-04-01T22:25:31;3.55;;;1.67;;
10458;SDS011;5277;48.722;8.736;2023-04-01T22:30:55;2.53;;;1.33;;
10458;SDS011;5277;48.722;8.736;2023-04-01T22:36:31;3.43;;;1.20;;
10458;SDS011;5277;48.722;8.736;2023-04-01T22:42:09;2.47;;;1.20;;
10458;SDS011;5277;48.722;8.736;2023-04-01T22:45:01;2.05;;;1.08;;
10458;SDS011;5277;48.722;8.736;2023-04-01T22:47:30;4.73;;;1.10;;
10458;SDS011;5277;48.722;8.736;2023-04-01T22:52:50;2.37;;;0.90;;
10458;SDS011;5277;48.722;8.736;2023-04-01T22:55:28;1.60;;;0.90;;
10458;SDS011;5277;48.722;8.736;2023-04-01T22:58:04;1.90;;;0.70;;
10458;SDS011;5277;48.722;8.736;2023-04-01T23:00:48;3.55;;;1.10;;
10458;SDS011;5277;48.722;8.736;2023-04-01T23:03:22;3.60;;;1.00;;
10458;SDS011;5277;48.722;8.736;2023-04-01T23:06:05;1.38;;;0.90;;
10458;SDS011;5277;48.722;8.736;2023-04-01T23:08:41;2.23;;;1.03;;
10458;SDS011;5277;48.722;8.736;2023-04-01T23:11:18;1.43;;;0.90;;
10458;SDS011;5277;48.722;8.736;2023-04-01T23:16:53;7.07;;;1.13;;
10458;SDS011;5277;48.722;8.736;2023-04-01T23:19:41;4.07;;;1.10;;
10458;SDS011;5277;48.722;8.736;2023-04-01T23:24:55;5.23;;;1.20;;
10458;SDS011;5277;48.722;8.736;2023-04-01T23:31:07;11.53;;;1.83;;
10458;SDS011;5277;48.722;8.736;2023-04-01T23:33:19;4.70;;;1.30;;
10458;SDS011;5277;48.722;8.736;2023-04-01T23:35:53;6.07;;;1.77;;
10458;SDS011;5277;48.722;8.736;2023-04-01T23:38:40;4.97;;;1.60;;
10458;SDS011;5277;48.722;8.736;2023-04-01T23:41:07;4.20;;;1.90;;
10458;SDS011;5277;48.722;8.736;2023-04-01T23:43:41;4.07;;;1.90;;
10458;SDS011;5277;48.722;8.736;2023-04-01T23:46:10;6.93;;;2.10;;
10458;SDS011;5277;48.722;8.736;2023-04-01T23:48:38;5.87;;;2.77;;
10458;SDS011;5277;48.722;8.736;2023-04-01T23:51:22;3.00;;;2.17;;
10458;SDS011;5277;48.722;8.736;2023-04-01T23:54:00;2.93;;;2.00;;
10458;SDS011;5277;48.722;8.736;2023-04-01T23:56:38;3.87;;;2.20;;
10458;SDS011;5277;48.722;8.736;2023-04-01T23:59:11;4.40;;;2.28;;
